Map

Track Data

SID SEASON NUMBER BASIN SUBBASIN NAME ISO_TIME NATURE LAT LON WMO_WIND WMO_PRES WMO_AGENCY TRACK_TYPE DIST2LAND LANDFALL IFLAG USA_AGENCY USA_ATCF_ID USA_LAT USA_LON USA_RECORD USA_STATUS USA_WIND USA_PRES USA_SSHS USA_R34_NE USA_R34_SE USA_R34_SW USA_R34_NW USA_R50_NE USA_R50_SE USA_R50_SW USA_R50_NW USA_R64_NE USA_R64_SE USA_R64_SW USA_R64_NW USA_POCI USA_ROCI USA_RMW USA_EYE TOKYO_LAT TOKYO_LON TOKYO_GRADE TOKYO_WIND TOKYO_PRES TOKYO_R50_DIR TOKYO_R50_LONG TOKYO_R50_SHORT TOKYO_R30_DIR TOKYO_R30_LONG TOKYO_R30_SHORT TOKYO_LAND CMA_LAT CMA_LON CMA_CAT CMA_WIND CMA_PRES HKO_LAT HKO_LON HKO_CAT HKO_WIND HKO_PRES NEWDELHI_LAT NEWDELHI_LON NEWDELHI_GRADE NEWDELHI_WIND NEWDELHI_PRES NEWDELHI_CI NEWDELHI_DP NEWDELHI_POCI REUNION_LAT REUNION_LON REUNION_TYPE REUNION_WIND REUNION_PRES REUNION_TNUM REUNION_CI REUNION_RMW REUNION_R34_NE REUNION_R34_SE REUNION_R34_SW REUNION_R34_NW REUNION_R50_NE REUNION_R50_SE REUNION_R50_SW REUNION_R50_NW REUNION_R64_NE REUNION_R64_SE REUNION_R64_SW REUNION_R64_NW BOM_LAT BOM_LON BOM_TYPE BOM_WIND BOM_PRES BOM_TNUM BOM_CI BOM_RMW BOM_R34_NE BOM_R34_SE BOM_R34_SW BOM_R34_NW BOM_R50_NE BOM_R50_SE BOM_R50_SW BOM_R50_NW BOM_R64_NE BOM_R64_SE BOM_R64_SW BOM_R64_NW BOM_ROCI BOM_POCI BOM_EYE BOM_POS_METHOD BOM_PRES_METHOD NADI_LAT NADI_LON NADI_CAT NADI_WIND NADI_PRES WELLINGTON_LAT WELLINGTON_LON WELLINGTON_WIND WELLINGTON_PRES DS824_LAT DS824_LON DS824_STAGE DS824_WIND DS824_PRES TD9636_LAT TD9636_LON TD9636_STAGE TD9636_WIND TD9636_PRES TD9635_LAT TD9635_LON TD9635_WIND TD9635_PRES TD9635_ROCI NEUMANN_LAT NEUMANN_LON NEUMANN_CLASS NEUMANN_WIND NEUMANN_PRES MLC_LAT MLC_LON MLC_CLASS MLC_WIND MLC_PRES USA_GUST BOM_GUST BOM_GUST_PER REUNION_GUST REUNION_GUST_PER USA_SEAHGT USA_SEARAD_NE USA_SEARAD_SE USA_SEARAD_SW USA_SEARAD_NW STORM_SPEED STORM_DIR
1945166N07146 1945 26 WP MM NOT_NAMED 1945-06-14 12:00:00 NR 6.60000 146.000 main 977 977 __________O___ -1 6.60000 146.000 2 15 272
1945166N07146 1945 26 WP MM NOT_NAMED 1945-06-14 15:00:00 NR 6.63220 145.225 main 987 987 __________P___ -1 6.63220 145.225 2 15 273
1945166N07146 1945 26 WP MM NOT_NAMED 1945-06-14 18:00:00 NR 6.69101 144.459 main 1013 1013 __________P___ -1 6.69101 144.459 2 15 277
1945166N07146 1945 26 WP MM NOT_NAMED 1945-06-14 21:00:00 NR 6.80431 143.714 main 1048 1048 __________P___ -1 6.80431 143.714 2 15 282
1945166N07146 1945 26 WP MM NOT_NAMED 1945-06-15 00:00:00 NR 7.00000 143.000 main 1092 1089 __________O___ -1 7.00000 143.000 2 15 290
1945166N07146 1945 26 WP MM NOT_NAMED 1945-06-15 03:00:00 NR 7.29567 142.325 main 1095 1095 __________P___ -1 7.29567 142.325 2 15 297
1945166N07146 1945 26 WP MM NOT_NAMED 1945-06-15 06:00:00 NR 7.66723 141.696 main 1112 1108 __________P___ -1 7.66723 141.696 2 14 303
1945166N07146 1945 26 WP MM NOT_NAMED 1945-06-15 09:00:00 NR 8.08017 141.118 main 1133 1133 __________P___ -1 8.08017 141.118 2 14 308
1945166N07146 1945 26 WP MM NOT_NAMED 1945-06-15 12:00:00 NR 8.50000 140.600 main 1162 1162 __________O___ -1 8.50000 140.600 2 12 311
1945166N07146 1945 26 WP MM NOT_NAMED 1945-06-15 15:00:00 NR 8.85360 140.206 main 1186 1182 __________P___ -1 8.85360 140.206 2 10 314
1945166N07146 1945 26 WP MM NOT_NAMED 1945-06-15 18:00:00 NR 9.21084 139.858 main 1205 1201 __________P___ -1 9.21084 139.858 2 10 316
1945166N07146 1945 26 WP MM NOT_NAMED 1945-06-15 21:00:00 NR 9.58773 139.481 main 1231 1228 __________P___ -1 9.58773 139.481 2 12 313
1945166N07146 1945 26 WP MM NOT_NAMED 1945-06-16 00:00:00 NR 10.0000 139.000 main 1256 1253 __________O___ -1 10.0000 139.000 2 15 308
1945166N07146 1945 26 WP MM NOT_NAMED 1945-06-16 03:00:00 NR 10.4727 138.315 main 1290 1259 __________P___ -1 10.4727 138.315 2 18 304
1945166N07146 1945 26 WP MM NOT_NAMED 1945-06-16 06:00:00 NR 10.9783 137.520 main 1252 1177 __________P___ -1 10.9783 137.520 2 19 302
1945166N07146 1945 26 WP MM NOT_NAMED 1945-06-16 09:00:00 NR 11.4945 136.665 main 1177 1103 __________P___ -1 11.4945 136.665 2 20 301
1945166N07146 1945 26 WP MM NOT_NAMED 1945-06-16 12:00:00 NR 12.0000 135.800 main 1095 993 __________O___ -1 12.0000 135.800 2 21 296
1945166N07146 1945 26 WP MM NOT_NAMED 1945-06-16 15:00:00 NR 12.4210 134.715 main 982 883 __________P___ -1 12.4210 134.715 2 22 292
1945166N07146 1945 26 WP MM NOT_NAMED 1945-06-16 18:00:00 NR 12.8336 133.674 main 883 812 __________P___ -1 12.8336 133.674 2 20 296
1945166N07146 1945 26 WP MM NOT_NAMED 1945-06-16 21:00:00 NR 13.2788 132.895 main 812 785 __________P___ -1 13.2788 132.895 2 14 313
1945166N07146 1945 26 WP MM NOT_NAMED 1945-06-17 00:00:00 NR 13.8000 132.600 main 790 790 __________O___ -1 13.8000 132.600 2 12 8
1945166N07146 1945 26 WP MM NOT_NAMED 1945-06-17 03:00:00 NR 14.4719 133.075 main 861 861 __________P___ -1 14.4719 133.075 2 20 45
1945166N07146 1945 26 WP MM NOT_NAMED 1945-06-17 06:00:00 NR 15.2166 134.039 main 978 978 __________P___ -1 15.2166 134.039 2 26 54
1945166N07146 1945 26 WP MM NOT_NAMED 1945-06-17 09:00:00 NR 15.9771 135.260 main 1139 1139 __________P___ -1 15.9771 135.260 2 28 58
1945166N07146 1945 26 WP MM NOT_NAMED 1945-06-17 12:00:00 NR 16.7000 136.500 main 1287 1287 __________O___ -1 16.7000 136.500 2 24 56
1945166N07146 1945 26 WP MM NOT_NAMED 1945-06-17 15:00:00 NR 17.3392 137.366 main 1401 1401 __________P___ -1 17.3392 137.366 2 21 53
1945166N07146 1945 26 WP MM NOT_NAMED 1945-06-17 18:00:00 NR 17.9352 138.209 main 1505 1505 __________P___ -1 17.9352 138.209 2 20 55
1945166N07146 1945 26 WP MM NOT_NAMED 1945-06-17 21:00:00 NR 18.4888 139.072 main 1619 1619 __________P___ -1 18.4888 139.072 2 20 58
1945166N07146 1945 26 WP MM NOT_NAMED 1945-06-18 00:00:00 NR 19.0000 140.000 main 1631 1627 __________O___ -1 19.0000 140.000 2 22 65
1945166N07146 1945 26 WP MM NOT_NAMED 1945-06-18 03:00:00 NR 19.4147 141.148 main 1649 1644 __________P___ -1 19.4147 141.148 2 24 70
1945166N07146 1945 26 WP MM NOT_NAMED 1945-06-18 06:00:00 NR 19.7952 142.350 main 1653 1646 __________P___ -1 19.7952 142.350 2 24 70
1945166N07146 1945 26 WP MM NOT_NAMED 1945-06-18 09:00:00 NR 20.2025 143.502 main 1658 1648 __________P___ -1 20.2025 143.502 2 22 66
1945166N07146 1945 26 WP MM NOT_NAMED 1945-06-18 12:00:00 NR 20.7000 144.500 main 1648 1603 __________O___ -1 20.7000 144.500 2 20 56
1945166N07146 1945 26 WP MM NOT_NAMED 1945-06-18 15:00:00 NR 21.3361 145.271 main 1607 1550 __________P___ -1 21.3361 145.271 2 19 42
1945166N07146 1945 26 WP MM NOT_NAMED 1945-06-18 18:00:00 NR 22.0909 145.851 main 1543 1476 __________P___ -1 22.0909 145.851 2 19 31
1945166N07146 1945 26 WP MM NOT_NAMED 1945-06-18 21:00:00 NR 22.9256 146.306 main 1476 1401 __________P___ -1 22.9256 146.306 2 19 25
1945166N07146 1945 26 WP MM NOT_NAMED 1945-06-19 00:00:00 NR 23.8000 146.700 main 1401 __________O___ -1 23.8000 146.700 2 19 22

Digital Typhoon Data and Search

About IBTrACS Database

This database is a web-friendly format of International Best Track Archive for Climate Stewardship (IBTrACS), a global best track data archive curated by NOAA dating back to 1842.

Updated: 2021-12-03